createdAt,value
2017-11-06T00:01:05.707Z,5.94
2017-11-06T00:02:16.220Z,5.9
2017-11-06T00:03:26.855Z,5.94
2017-11-06T00:04:37.308Z,5.86
2017-11-06T00:05:47.831Z,5.9
2017-11-06T00:06:58.339Z,5.86
2017-11-06T00:08:08.773Z,5.9
2017-11-06T00:09:19.210Z,5.96
2017-11-06T00:10:29.686Z,5.9
2017-11-06T00:11:39.847Z,5.9
2017-11-06T00:12:50.337Z,5.88
2017-11-06T00:14:00.792Z,5.84
2017-11-06T00:15:11.253Z,5.8
2017-11-06T00:16:21.649Z,5.91
2017-11-06T00:17:32.107Z,5.75
2017-11-06T00:18:42.598Z,5.69
2017-11-06T00:19:53.045Z,5.72
2017-11-06T00:21:03.182Z,5.71
2017-11-06T00:22:13.660Z,5.86
2017-11-06T00:23:23.497Z,5.88
2017-11-06T00:24:33.959Z,5.83
2017-11-06T00:25:44.472Z,5.86
2017-11-06T00:26:54.937Z,5.88
2017-11-06T00:28:05.422Z,5.83
2017-11-06T00:29:15.224Z,5.88
2017-11-06T00:30:25.817Z,5.82
2017-11-06T00:31:36.406Z,5.79
2017-11-06T00:32:46.850Z,5.84
2017-11-06T00:33:57.384Z,5.9
2017-11-06T00:35:07.821Z,5.75
2017-11-06T00:36:18.265Z,5.9
2017-11-06T00:37:28.718Z,5.8
2017-11-06T00:38:39.205Z,5.86
2017-11-06T00:39:49.689Z,5.82
2017-11-06T00:41:00.168Z,5.83
2017-11-06T00:42:10.607Z,5.82
2017-11-06T00:43:21.166Z,5.84
2017-11-06T00:44:31.435Z,5.93
2017-11-06T00:45:41.972Z,5.91
2017-11-06T00:46:51.670Z,5.72
2017-11-06T00:48:02.108Z,5.72
2017-11-06T00:49:12.576Z,5.88
2017-11-06T00:50:22.700Z,5.79
2017-11-06T00:51:33.149Z,5.88
2017-11-06T00:52:43.674Z,5.82
2017-11-06T00:53:54.131Z,5.88
2017-11-06T00:55:04.660Z,5.83
2017-11-06T00:56:15.112Z,5.83
2017-11-06T00:57:25.643Z,5.77
2017-11-06T00:58:36.099Z,5.83
2017-11-06T00:59:45.785Z,5.91
2017-11-06T01:00:56.235Z,5.86
2017-11-06T01:02:06.737Z,5.86
2017-11-06T01:03:17.201Z,5.8
2017-11-06T01:04:27.719Z,5.84
2017-11-06T01:05:37.729Z,5.74
2017-11-06T01:06:48.179Z,5.83
2017-11-06T01:07:58.636Z,5.72
2017-11-06T01:09:09.088Z,5.84
2017-11-06T01:10:19.579Z,5.82
2017-11-06T01:11:30.015Z,5.8
2017-11-06T01:12:40.170Z,5.84
2017-11-06T01:13:50.641Z,5.9
2017-11-06T01:15:01.181Z,5.88
2017-11-06T01:16:11.647Z,5.83
2017-11-06T01:17:22.106Z,5.77
2017-11-06T01:18:32.875Z,5.9
2017-11-06T01:19:43.429Z,5.77
2017-11-06T01:20:53.957Z,5.8
2017-11-06T01:22:04.420Z,5.8
2017-11-06T01:23:14.885Z,5.8
2017-11-06T01:24:25.340Z,5.8
2017-11-06T01:25:35.835Z,5.69
2017-11-06T01:26:45.964Z,5.69
2017-11-06T01:27:56.493Z,5.67
2017-11-06T01:29:06.940Z,5.68
2017-11-06T01:30:17.403Z,5.68
2017-11-06T01:31:27.865Z,5.67
2017-11-06T01:32:37.975Z,5.72
2017-11-06T01:33:48.597Z,5.74
2017-11-06T01:34:59.043Z,5.74
2017-11-06T01:36:09.521Z,5.69
2017-11-06T01:37:20.026Z,5.68
2017-11-06T01:38:30.500Z,5.68
2017-11-06T01:39:40.959Z,5.65
2017-11-06T01:40:51.071Z,5.69
2017-11-06T01:42:01.526Z,5.67
2017-11-06T01:43:12.108Z,5.71
2017-11-06T01:44:22.580Z,5.67
2017-11-06T01:45:33.020Z,5.68
2017-11-06T01:46:43.489Z,5.65
2017-11-06T01:47:53.974Z,5.68
2017-11-06T01:49:04.413Z,5.68
2017-11-06T01:50:14.840Z,5.65
2017-11-06T01:51:25.276Z,5.69
2017-11-06T01:52:35.849Z,5.68
2017-11-06T01:53:47.262Z,5.72
2017-11-06T01:54:57.746Z,5.65
2017-11-06T01:56:08.215Z,5.67
2017-11-06T01:57:18.309Z,5.68
2017-11-06T01:58:28.750Z,5.62
2017-11-06T01:59:39.003Z,5.64
2017-11-06T02:00:49.861Z,5.68
2017-11-06T02:02:00.331Z,5.64
2017-11-06T02:03:10.506Z,5.54
2017-11-06T02:04:20.647Z,5.58
2017-11-06T02:05:31.079Z,5.53
2017-11-06T02:06:41.282Z,5.59
2017-11-06T02:07:51.741Z,5.61
2017-11-06T02:09:02.417Z,5.61
2017-11-06T02:10:12.892Z,5.61
2017-11-06T02:11:23.451Z,5.56
2017-11-06T02:12:33.904Z,5.62
2017-11-06T02:13:44.365Z,5.64
2017-11-06T02:14:54.802Z,5.61
2017-11-06T02:16:05.273Z,5.56
2017-11-06T02:17:15.407Z,5.53
2017-11-06T02:18:25.867Z,5.56
2017-11-06T02:19:36.300Z,5.59
2017-11-06T02:20:46.596Z,5.59
2017-11-06T02:21:57.045Z,5.59
2017-11-06T02:23:07.640Z,5.58
2017-11-06T02:24:18.237Z,5.59
2017-11-06T02:25:28.380Z,5.61
2017-11-06T02:26:38.837Z,5.51
2017-11-06T02:27:48.962Z,5.53
2017-11-06T02:28:58.980Z,5.56
2017-11-06T02:30:09.478Z,5.56
2017-11-06T02:31:20.014Z,5.54
2017-11-06T02:32:30.460Z,5.53
2017-11-06T02:33:40.912Z,5.47
2017-11-06T02:34:51.349Z,5.43
2017-11-06T02:36:01.888Z,5.44
2017-11-06T02:37:12.364Z,5.46
2017-11-06T02:38:22.804Z,5.47
2017-11-06T02:39:34.235Z,5.49
2017-11-06T02:40:44.809Z,5.38
2017-11-06T02:41:54.611Z,5.47
2017-11-06T02:43:04.732Z,5.44
2017-11-06T02:44:15.181Z,5.46
2017-11-06T02:45:25.921Z,5.46
2017-11-06T02:46:36.399Z,5.43
2017-11-06T02:47:46.832Z,5.5
2017-11-06T02:48:57.408Z,5.49
2017-11-06T02:50:07.860Z,5.43
2017-11-06T02:51:18.438Z,5.47
2017-11-06T02:52:28.543Z,5.47
2017-11-06T02:53:38.984Z,5.47
2017-11-06T02:54:49.502Z,5.49
2017-11-06T02:55:59.982Z,5.53
2017-11-06T02:57:10.884Z,5.41
2017-11-06T02:58:21.317Z,5.44
2017-11-06T02:59:31.773Z,5.43
2017-11-06T03:00:42.298Z,5.41
2017-11-06T03:01:52.756Z,5.43
2017-11-06T03:03:03.246Z,5.47
2017-11-06T03:04:13.705Z,5.46
2017-11-06T03:05:24.214Z,5.44
2017-11-06T03:06:34.733Z,5.43
2017-11-06T03:07:45.158Z,5.41
2017-11-06T03:08:55.591Z,5.44
2017-11-06T03:10:06.140Z,5.44
2017-11-06T03:11:16.579Z,5.41
2017-11-06T03:12:27.050Z,5.44
2017-11-06T03:13:37.492Z,5.38
2017-11-06T03:14:47.967Z,5.41
2017-11-06T03:15:58.440Z,5.4
2017-11-06T03:17:09.869Z,5.41
2017-11-06T03:18:19.557Z,5.41
2017-11-06T03:19:29.990Z,5.38
2017-11-06T03:20:40.359Z,5.4
2017-11-06T03:21:50.475Z,5.31
2017-11-06T03:23:00.951Z,5.35
2017-11-06T03:24:11.319Z,5.36
2017-11-06T03:25:21.791Z,5.29
2017-11-06T03:26:32.238Z,5.35
2017-11-06T03:27:42.383Z,5.31
2017-11-06T03:28:53.807Z,5.29
2017-11-06T03:30:04.332Z,5.32
2017-11-06T03:31:14.801Z,5.31
2017-11-06T03:32:25.300Z,5.24
2017-11-06T03:33:35.724Z,5.29
2017-11-06T03:34:46.322Z,5.33
2017-11-06T03:35:56.764Z,5.29
2017-11-06T03:37:07.255Z,5.35
2017-11-06T03:38:17.718Z,5.35
2017-11-06T03:39:28.230Z,5.24
2017-11-06T03:40:38.352Z,5.32
2017-11-06T03:41:48.823Z,5.31
2017-11-06T03:42:59.332Z,5.21
2017-11-06T03:44:09.431Z,5.22
2017-11-06T03:45:19.896Z,5.31
2017-11-06T03:46:30.370Z,5.18
2017-11-06T03:47:40.804Z,5.28
2017-11-06T03:48:51.329Z,5.26
2017-11-06T03:50:01.778Z,5.31
2017-11-06T03:51:12.235Z,5.31
2017-11-06T03:52:22.689Z,5.31
2017-11-06T03:53:33.233Z,5.25
2017-11-06T03:54:43.737Z,5.26
2017-11-06T03:55:54.205Z,5.25
2017-11-06T03:57:04.644Z,5.17
2017-11-06T03:58:15.074Z,5.21
2017-11-06T03:59:25.219Z,5.22
2017-11-06T04:00:35.658Z,5.18
2017-11-06T04:01:46.093Z,5.18
2017-11-06T04:02:56.680Z,5.22
2017-11-06T04:04:07.138Z,5.14
2017-11-06T04:05:18.647Z,5.26
2017-11-06T04:06:29.125Z,5.32
2017-11-06T04:07:39.555Z,5.22
2017-11-06T04:08:50.078Z,5.31
2017-11-06T04:10:00.622Z,5.29
2017-11-06T04:11:11.061Z,5.25
2017-11-06T04:12:21.525Z,5.22
2017-11-06T04:13:31.989Z,5.24
2017-11-06T04:14:42.475Z,5.22
2017-11-06T04:15:52.936Z,5.22
2017-11-06T04:17:03.430Z,5.22
2017-11-06T04:18:13.570Z,5.21
2017-11-06T04:19:23.704Z,5.16
2017-11-06T04:20:34.172Z,5.16
2017-11-06T04:21:43.962Z,5.11
2017-11-06T04:22:54.129Z,5.11
2017-11-06T04:24:04.605Z,5.07
2017-11-06T04:25:15.046Z,5
2017-11-06T04:26:25.513Z,4.99
2017-11-06T04:27:35.900Z,4.99
2017-11-06T04:28:46.362Z,4.98
2017-11-06T04:29:57.201Z,5.06
2017-11-06T04:31:07.631Z,4.96
2017-11-06T04:32:18.223Z,4.96
2017-11-06T04:33:28.659Z,4.92
2017-11-06T04:34:39.338Z,4.93
2017-11-06T04:35:49.339Z,4.89
2017-11-06T04:36:59.803Z,4.85
2017-11-06T04:38:10.281Z,4.95
2017-11-06T04:39:20.410Z,4.86
2017-11-06T04:40:30.869Z,4.92
2017-11-06T04:41:40.968Z,4.77
2017-11-06T04:42:51.404Z,4.86
2017-11-06T04:44:01.831Z,4.77
2017-11-06T04:45:12.358Z,4.71
2017-11-06T04:46:22.809Z,4.75
2017-11-06T04:47:33.291Z,4.77
2017-11-06T04:48:43.516Z,4.71
2017-11-06T04:49:53.964Z,4.75
2017-11-06T04:51:04.460Z,4.73
2017-11-06T04:52:14.915Z,4.62
2017-11-06T04:53:25.632Z,4.68
2017-11-06T04:54:36.079Z,4.73
2017-11-06T04:55:46.605Z,4.59
2017-11-06T04:56:57.044Z,4.57
2017-11-06T04:58:07.477Z,4.65
2017-11-06T04:59:17.518Z,4.68
2017-11-06T05:00:27.988Z,4.68
2017-11-06T05:01:38.442Z,4.53
2017-11-06T05:02:49.193Z,4.67
2017-11-06T05:03:59.634Z,4.67
2017-11-06T05:05:10.212Z,4.7
2017-11-06T05:06:20.634Z,4.71
2017-11-06T05:07:31.073Z,4.53
2017-11-06T05:08:41.506Z,4.55
2017-11-06T05:09:51.965Z,4.55
2017-11-06T05:11:02.528Z,4.53
2017-11-06T05:12:13.113Z,4.53
2017-11-06T05:13:23.296Z,4.57
2017-11-06T05:14:33.729Z,4.5
2017-11-06T05:15:44.173Z,4.49
2017-11-06T05:16:53.858Z,4.47
2017-11-06T05:18:04.632Z,4.41
2017-11-06T05:19:15.098Z,4.46
2017-11-06T05:20:25.551Z,4.43
2017-11-06T05:21:36.036Z,4.46
2017-11-06T05:22:46.608Z,4.38
2017-11-06T05:23:57.077Z,4.38
2017-11-06T05:25:07.182Z,4.46
2017-11-06T05:26:16.913Z,4.38
2017-11-06T05:27:27.376Z,4.41
2017-11-06T05:28:37.102Z,4.41
2017-11-06T05:29:47.217Z,4.37
2017-11-06T05:30:57.683Z,4.43
2017-11-06T05:32:08.141Z,4.3
2017-11-06T05:33:18.285Z,4.36
2017-11-06T05:34:28.747Z,4.33
2017-11-06T05:35:39.179Z,4.28
2017-11-06T05:36:49.658Z,4.27
2017-11-06T05:38:00.207Z,4.28
2017-11-06T05:39:10.649Z,4.34
2017-11-06T05:40:20.824Z,4.31
2017-11-06T05:41:31.268Z,4.34
2017-11-06T05:42:41.760Z,4.27
2017-11-06T05:43:52.272Z,4.28
2017-11-06T05:45:02.380Z,4.2
2017-11-06T05:46:12.848Z,4.3
2017-11-06T05:47:23.314Z,4.23
2017-11-06T05:48:33.742Z,4.25
2017-11-06T05:49:44.197Z,4.22
2017-11-06T05:50:54.210Z,4.22
2017-11-06T05:52:04.730Z,4.23
2017-11-06T05:53:15.172Z,4.12
2017-11-06T05:54:25.688Z,4.2
2017-11-06T05:55:36.115Z,4.12
2017-11-06T05:56:46.562Z,4.05
2017-11-06T05:57:56.362Z,4.19
2017-11-06T05:59:06.901Z,4.12
2017-11-06T06:00:17.378Z,4.12
2017-11-06T06:01:27.569Z,4.18
2017-11-06T06:02:38.118Z,4.2
2017-11-06T06:03:47.849Z,4.12
2017-11-06T06:04:57.958Z,4.22
2017-11-06T06:06:08.474Z,4.15
2017-11-06T06:07:18.950Z,4.2
2017-11-06T06:08:29.406Z,4.18
2017-11-06T06:09:39.832Z,4.2
2017-11-06T06:10:50.258Z,4.2
2017-11-06T06:12:00.742Z,4.23
2017-11-06T06:13:11.196Z,4.18
2017-11-06T06:14:21.635Z,4.16
2017-11-06T06:15:32.085Z,4.12
2017-11-06T06:16:42.652Z,4.15
2017-11-06T06:17:53.082Z,4.25
2017-11-06T06:19:03.395Z,4.22
2017-11-06T06:20:13.886Z,4.23
2017-11-06T06:21:24.352Z,4.18
2017-11-06T06:22:34.792Z,4.22
2017-11-06T06:23:45.505Z,4.12
2017-11-06T06:24:55.970Z,4.18
2017-11-06T06:26:06.437Z,4.19
2017-11-06T06:27:17.106Z,4.23
2017-11-06T06:28:27.541Z,4.22
2017-11-06T06:29:38.191Z,4.25
2017-11-06T06:30:48.779Z,4.27
2017-11-06T06:31:59.202Z,4.22
2017-11-06T06:33:09.357Z,4.2
2017-11-06T06:34:19.810Z,4.22
2017-11-06T06:35:29.930Z,4.23
2017-11-06T06:36:40.421Z,4.27
2017-11-06T06:37:50.993Z,4.23
2017-11-06T06:39:01.035Z,4.2
2017-11-06T06:40:11.461Z,4.18
2017-11-06T06:41:21.577Z,4.22
2017-11-06T06:42:32.414Z,4.2
2017-11-06T06:43:42.861Z,4.28
2017-11-06T06:44:53.319Z,4.22
2017-11-06T06:46:03.047Z,4.2
2017-11-06T06:47:13.478Z,4.28
2017-11-06T06:48:23.941Z,4.27
2017-11-06T06:49:33.982Z,4.27
2017-11-06T06:50:44.436Z,4.2
2017-11-06T06:51:54.439Z,4.16
2017-11-06T06:53:04.605Z,4.22
2017-11-06T06:54:15.144Z,4.13
2017-11-06T06:55:25.281Z,4.19
2017-11-06T06:56:36.375Z,4.22
2017-11-06T06:57:46.849Z,4.2
2017-11-06T06:58:57.296Z,4.11
2017-11-06T07:00:07.895Z,4.08
2017-11-06T07:01:18.365Z,4.19
2017-11-06T07:02:28.794Z,4.16
2017-11-06T07:03:39.234Z,4.2
2017-11-06T07:04:49.695Z,4.27
2017-11-06T07:06:00.170Z,4.22
2017-11-06T07:07:10.640Z,4.19
2017-11-06T07:08:21.078Z,4.33
2017-11-06T07:09:31.229Z,4.38
2017-11-06T07:10:41.811Z,4.5
2017-11-06T07:11:52.245Z,4.65
2017-11-06T07:13:02.756Z,4.86
2017-11-06T07:14:12.882Z,5.1
2017-11-06T07:15:23.341Z,5.33
2017-11-06T07:16:34.769Z,5.67
2017-11-06T07:17:45.235Z,6.14
2017-11-06T07:18:55.688Z,6.59
2017-11-06T07:20:06.142Z,7.13
2017-11-06T07:21:16.619Z,7.66
2017-11-06T07:22:27.051Z,7.97
2017-11-06T07:23:37.521Z,8.5
2017-11-06T07:24:47.955Z,8.97
2017-11-06T07:25:58.409Z,9.25
2017-11-06T07:27:08.544Z,9.66
2017-11-06T07:28:19.059Z,9.96
2017-11-06T07:29:28.841Z,10.29
2017-11-06T07:30:39.011Z,10.48
2017-11-06T07:31:49.440Z,10.65
2017-11-06T07:32:59.275Z,10.79
2017-11-06T07:34:09.699Z,10.91
2017-11-06T07:35:20.159Z,11.13
2017-11-06T07:36:30.610Z,11.33
2017-11-06T07:37:41.068Z,11.49
2017-11-06T07:38:51.506Z,11.69
2017-11-06T07:40:01.644Z,11.9
2017-11-06T07:41:12.085Z,11.99
2017-11-06T07:42:22.632Z,12.22
2017-11-06T07:43:34.076Z,12.38
2017-11-06T07:44:44.574Z,12.59
2017-11-06T07:45:55.022Z,12.81
2017-11-06T07:47:05.590Z,12.82
2017-11-06T07:48:16.029Z,12.88
2017-11-06T07:49:26.517Z,12.95
2017-11-06T07:50:36.999Z,13.01
2017-11-06T07:51:47.481Z,12.93
2017-11-06T07:52:57.924Z,13.16
2017-11-06T07:54:07.633Z,13.01
2017-11-06T07:55:17.773Z,13.04
2017-11-06T07:56:27.226Z,12.77
2017-11-06T07:57:37.666Z,12.31
2017-11-06T07:58:48.123Z,11.91
2017-11-06T07:59:58.607Z,11.89
2017-11-06T08:01:08.740Z,12.16
2017-11-06T08:02:19.209Z,12.47
2017-11-06T08:03:30.862Z,12.92
2017-11-06T08:04:41.725Z,13.33
2017-11-06T08:05:52.390Z,13.56
2017-11-06T08:07:05.511Z,14.03
2017-11-06T08:08:15.972Z,14.24
2017-11-06T08:09:25.993Z,14.22
2017-11-06T08:10:36.117Z,14.36
2017-11-06T08:11:46.591Z,14.67
2017-11-06T08:12:57.069Z,15
2017-11-06T08:14:07.517Z,15.11
2017-11-06T08:15:17.974Z,15.18
2017-11-06T08:16:28.315Z,15.39
2017-11-06T08:17:38.871Z,15.53
2017-11-06T08:18:49.069Z,15.8
2017-11-06T08:19:59.518Z,16.13
2017-11-06T08:21:09.800Z,16.38
2017-11-06T08:22:20.265Z,16.62
2017-11-06T08:23:30.711Z,16.65
2017-11-06T08:24:41.172Z,16.69
2017-11-06T08:25:51.200Z,16.57
2017-11-06T08:27:01.851Z,16.71
2017-11-06T08:28:12.323Z,16.83
2017-11-06T08:29:22.808Z,17.08
2017-11-06T08:30:33.339Z,16.71
2017-11-06T08:31:43.834Z,16.43
2017-11-06T08:32:54.286Z,15.95
2017-11-06T08:34:04.742Z,15.82
2017-11-06T08:35:15.222Z,15.87
2017-11-06T08:36:25.676Z,15.96
2017-11-06T08:37:36.133Z,16.19
2017-11-06T08:38:46.284Z,16.46
2017-11-06T08:39:56.313Z,16.62
2017-11-06T08:41:06.759Z,16.72
2017-11-06T08:42:17.467Z,17.05
2017-11-06T08:43:27.906Z,17.23
2017-11-06T08:44:38.372Z,17.5
2017-11-06T08:45:48.587Z,17.75
2017-11-06T08:46:59.046Z,17.73
2017-11-06T08:48:09.525Z,17.5
2017-11-06T08:49:20.027Z,17.58
2017-11-06T08:50:30.518Z,17.58
2017-11-06T08:51:40.968Z,17.7
2017-11-06T08:52:51.443Z,17.83
2017-11-06T08:54:01.910Z,18
2017-11-06T08:55:12.579Z,18.15
2017-11-06T08:56:23.082Z,18.4
2017-11-06T08:57:33.590Z,18.3
2017-11-06T08:58:44.046Z,18.34
2017-11-06T08:59:54.488Z,18.4
2017-11-06T09:01:05.065Z,18.55
2017-11-06T09:02:15.527Z,18.86
2017-11-06T09:03:26.221Z,19.06
2017-11-06T09:04:36.944Z,19.15
2017-11-06T09:05:47.028Z,19.34
2017-11-06T09:06:57.565Z,19.46
2017-11-06T09:08:08.035Z,19.34
2017-11-06T09:09:18.164Z,19.3
2017-11-06T09:10:28.328Z,19.16
2017-11-06T09:11:40.234Z,19.13
2017-11-06T09:12:53.083Z,19.09
2017-11-06T09:14:03.557Z,19.21
2017-11-06T09:15:14.005Z,19.4
2017-11-06T09:16:24.467Z,19.25
2017-11-06T09:17:34.953Z,19.3
2017-11-06T09:18:45.421Z,19.15
2017-11-06T09:19:55.908Z,19.03
2017-11-06T09:21:06.356Z,18.84
2017-11-06T09:22:16.868Z,18.72
2017-11-06T09:23:26.933Z,18.55
2017-11-06T09:24:37.419Z,18.59
2017-11-06T09:25:47.939Z,18.4
2017-11-06T09:26:58.385Z,18.3
2017-11-06T09:28:09.062Z,18.49
2017-11-06T09:30:33.422Z,18.38
2017-11-06T09:36:43.336Z,18.05
2017-11-06T09:37:53.813Z,17.94
2017-11-06T09:39:19.887Z,17.89
2017-11-06T09:40:29.614Z,17.95
2017-11-06T09:41:42.200Z,17.86
2017-11-06T09:42:52.656Z,17.91
2017-11-06T09:45:19.291Z,18.13
2017-11-06T09:46:31.016Z,18.4
2017-11-06T09:49:28.296Z,18.63
2017-11-06T09:50:38.855Z,18.65
2017-11-06T09:51:49.344Z,18.88
2017-11-06T09:52:59.832Z,18.8
2017-11-06T09:54:10.010Z,18.97
2017-11-06T09:55:20.473Z,18.91
2017-11-06T09:56:30.937Z,18.93
2017-11-06T09:57:41.395Z,18.98
2017-11-06T09:58:52.020Z,18.93
2017-11-06T10:00:02.588Z,18.95
2017-11-06T10:01:13.071Z,18.76
2017-11-06T10:02:23.554Z,18.73
2017-11-06T10:03:34.156Z,18.73
2017-11-06T10:04:44.695Z,18.65
2017-11-06T10:05:55.190Z,18.65
2017-11-06T10:07:05.775Z,18.52
2017-11-06T10:08:16.250Z,18.41
2017-11-06T10:09:26.711Z,18.46
2017-11-06T10:10:36.859Z,18.46
2017-11-06T10:11:47.373Z,18.42
2017-11-06T10:12:57.954Z,18.25
2017-11-06T10:14:08.614Z,18.2
2017-11-06T10:15:19.133Z,18.17
2017-11-06T10:16:29.293Z,18.04
2017-11-06T10:17:39.768Z,17.87
2017-11-06T10:18:50.218Z,17.7
2017-11-06T10:20:00.690Z,17.61
2017-11-06T10:21:11.277Z,17.4
2017-11-06T10:22:21.429Z,17.27
2017-11-06T10:23:31.573Z,17.09
2017-11-06T10:24:42.153Z,16.94
2017-11-06T10:25:52.652Z,16.84
2017-11-06T10:27:03.101Z,16.72
2017-11-06T10:28:13.559Z,16.8
2017-11-06T10:29:24.015Z,17.02
2017-11-06T10:30:34.506Z,17.12
2017-11-06T10:31:44.997Z,17.23
2017-11-06T10:32:55.168Z,17.46
2017-11-06T10:34:05.647Z,17.57
2017-11-06T10:35:16.160Z,17.58
2017-11-06T10:36:26.634Z,17.65
2017-11-06T10:37:37.139Z,17.83
2017-11-06T10:38:47.634Z,18
2017-11-06T10:39:58.187Z,18.19
2017-11-06T10:41:08.965Z,18.41
2017-11-06T10:42:19.434Z,18.41
2017-11-06T10:43:29.941Z,18.3
2017-11-06T10:44:40.409Z,18.4
2017-11-06T10:45:50.957Z,18.28
2017-11-06T10:47:01.451Z,18.26
2017-11-06T10:48:11.940Z,18.37
2017-11-06T10:49:22.404Z,18.37
2017-11-06T10:50:33.024Z,18.17
2017-11-06T10:51:43.755Z,18.07
2017-11-06T10:52:54.229Z,18.15
2017-11-06T10:54:04.699Z,18.2
2017-11-06T10:55:15.166Z,18.28
2017-11-06T10:56:25.322Z,18.3
2017-11-06T10:57:35.805Z,18.4
2017-11-06T10:58:46.257Z,18.38
2017-11-06T10:59:56.723Z,18.38
2017-11-06T11:01:07.339Z,18.44
2017-11-06T11:02:17.869Z,18.41
2017-11-06T11:03:28.342Z,18.4
2017-11-06T11:04:38.845Z,18.44
2017-11-06T11:05:49.348Z,18.32
2017-11-06T11:06:59.830Z,18.4
2017-11-06T11:08:10.340Z,18.28
2017-11-06T11:09:20.835Z,17.94
2017-11-06T11:10:31.296Z,17.87
2017-11-06T11:11:41.766Z,17.64
2017-11-06T11:12:52.241Z,17.67
2017-11-06T11:14:02.735Z,17.64
2017-11-06T11:15:12.887Z,17.57
2017-11-06T11:16:23.458Z,17.61
2017-11-06T11:17:33.623Z,17.57
2017-11-06T11:18:44.076Z,17.5
2017-11-06T11:19:54.552Z,17.43
2017-11-06T11:21:04.714Z,17.46
2017-11-06T11:22:14.882Z,17.35
2017-11-06T11:23:25.403Z,17.49
2017-11-06T11:24:35.902Z,17.52
2017-11-06T11:25:46.347Z,17.58
2017-11-06T11:26:56.601Z,17.68
2017-11-06T11:28:07.085Z,17.77
2017-11-06T11:29:17.248Z,17.87
2017-11-06T11:30:27.728Z,17.94
2017-11-06T11:31:37.856Z,17.87
2017-11-06T11:32:48.339Z,17.87
2017-11-06T11:33:58.594Z,17.87
2017-11-06T11:35:09.082Z,17.86
2017-11-06T11:36:19.633Z,17.92
2017-11-06T11:37:30.100Z,17.95
2017-11-06T11:38:40.274Z,17.95
2017-11-06T11:39:50.862Z,17.97
2017-11-06T11:41:01.350Z,17.92
2017-11-06T11:42:11.837Z,17.91
2017-11-06T11:43:22.369Z,17.98
2017-11-06T11:44:32.842Z,18.02
2017-11-06T11:45:43.296Z,18.28
2017-11-06T11:46:53.974Z,18.32
2017-11-06T11:48:04.109Z,18.3
2017-11-06T11:49:14.255Z,18.19
2017-11-06T11:50:24.801Z,18.12
2017-11-06T11:51:35.309Z,18.04
2017-11-06T11:52:46.024Z,17.98
2017-11-06T11:53:56.153Z,17.94
2017-11-06T11:55:06.396Z,18.07
2017-11-06T11:56:16.966Z,18.1
2017-11-06T11:57:27.150Z,17.94
2017-11-06T11:58:37.598Z,17.54
2017-11-06T11:59:48.066Z,17.11
2017-11-06T12:00:58.522Z,16.69
2017-11-06T12:02:09.020Z,16.49
2017-11-06T12:03:19.303Z,16.1
2017-11-06T12:04:29.901Z,15.84
2017-11-06T12:05:40.634Z,15.53
2017-11-06T12:06:51.102Z,15.27
2017-11-06T12:08:01.641Z,15.06
2017-11-06T12:09:12.163Z,14.88
2017-11-06T12:10:22.633Z,14.65
2017-11-06T12:11:33.076Z,14.54
2017-11-06T12:12:43.572Z,14.67
2017-11-06T12:13:54.043Z,14.6
2017-11-06T12:15:04.512Z,14.72
2017-11-06T12:16:14.969Z,14.83
2017-11-06T12:17:25.421Z,15.11
2017-11-06T12:18:35.884Z,15.25
2017-11-06T12:19:46.347Z,15.24
2017-11-06T12:20:57.046Z,15.29
2017-11-06T12:22:07.223Z,15.3
2017-11-06T12:23:17.777Z,15.45
2017-11-06T12:24:27.953Z,15.48
2017-11-06T12:25:38.433Z,15.58
2017-11-06T12:26:48.921Z,15.7
2017-11-06T12:27:59.381Z,15.64
2017-11-06T12:29:09.867Z,15.7
2017-11-06T12:30:20.108Z,15.58
2017-11-06T12:31:30.590Z,15.35
2017-11-06T12:32:41.146Z,15.27
2017-11-06T12:33:52.258Z,15.11
2017-11-06T12:35:02.785Z,14.93
2017-11-06T12:36:13.263Z,14.67
2017-11-06T12:37:23.815Z,14.52
2017-11-06T12:38:34.945Z,14.39
2017-11-06T12:39:45.431Z,14.11
2017-11-06T12:40:55.985Z,14.06
2017-11-06T12:42:06.470Z,13.94
2017-11-06T12:43:16.927Z,13.88
2017-11-06T12:44:27.411Z,13.77
2017-11-06T12:45:37.866Z,13.64
2017-11-06T12:46:48.567Z,13.61
2017-11-06T12:47:59.167Z,13.55
2017-11-06T12:49:09.314Z,13.44
2017-11-06T12:50:19.813Z,13.41
2017-11-06T12:51:30.058Z,13.41
2017-11-06T12:52:40.534Z,13.49
2017-11-06T12:53:51.054Z,13.59
2017-11-06T12:55:01.180Z,13.67
2017-11-06T12:56:11.789Z,13.58
2017-11-06T12:57:22.261Z,13.64
2017-11-06T12:58:32.399Z,13.61
2017-11-06T12:59:42.871Z,13.56
2017-11-06T13:00:53.349Z,13.59
2017-11-06T13:02:03.808Z,13.58
2017-11-06T13:03:14.332Z,13.56
2017-11-06T13:04:24.794Z,13.56
2017-11-06T13:05:35.262Z,13.56
2017-11-06T13:06:45.943Z,13.48
2017-11-06T13:07:56.487Z,13.38
2017-11-06T13:09:06.956Z,13.4
2017-11-06T13:10:17.427Z,13.26
2017-11-06T13:11:27.915Z,13.11
2017-11-06T13:12:38.416Z,13.01
2017-11-06T13:13:48.868Z,12.8
2017-11-06T13:14:59.364Z,12.75
2017-11-06T13:16:09.954Z,12.59
2017-11-06T13:17:20.050Z,12.47
2017-11-06T13:18:30.517Z,12.38
2017-11-06T13:19:40.977Z,12.35
2017-11-06T13:20:51.545Z,12.24
2017-11-06T13:22:02.089Z,12.19
2017-11-06T13:23:12.557Z,12.17
2017-11-06T13:24:23.060Z,12.08
2017-11-06T13:25:33.535Z,11.87
2017-11-06T13:26:43.992Z,11.65
2017-11-06T13:27:54.470Z,11.43
2017-11-06T13:29:05.162Z,11.39
2017-11-06T13:30:15.671Z,11.3
2017-11-06T13:31:25.822Z,11.24
2017-11-06T13:32:36.313Z,11.23
2017-11-06T13:33:47.047Z,11.15
2017-11-06T13:34:57.552Z,11.12
2017-11-06T13:36:08.040Z,11.06
2017-11-06T13:37:18.692Z,10.94
2017-11-06T13:38:29.150Z,11.02
2017-11-06T13:39:39.739Z,10.88
2017-11-06T13:40:49.560Z,10.91
2017-11-06T13:42:00.044Z,10.8
2017-11-06T13:43:10.617Z,10.85
2017-11-06T13:44:21.111Z,10.94
2017-11-06T13:45:31.589Z,10.83
2017-11-06T13:46:41.736Z,10.85
2017-11-06T13:47:52.242Z,10.79
2017-11-06T13:49:02.696Z,10.76
2017-11-06T13:50:13.157Z,10.7
2017-11-06T13:51:23.646Z,10.65
2017-11-06T13:52:34.114Z,10.69
2017-11-06T13:53:44.580Z,10.54
2017-11-06T13:54:55.027Z,10.5
2017-11-06T13:56:05.509Z,10.54
2017-11-06T13:57:16.002Z,10.51
2017-11-06T13:58:26.447Z,10.51
2017-11-06T13:59:36.905Z,10.52
2017-11-06T14:00:47.419Z,10.45
2017-11-06T14:01:57.917Z,10.37
2017-11-06T14:03:08.617Z,10.34
2017-11-06T14:04:19.113Z,10.22
2017-11-06T14:05:29.626Z,10.37
2017-11-06T14:06:39.832Z,10.27
2017-11-06T14:07:49.988Z,10.29
2017-11-06T14:09:00.704Z,10.26
2017-11-06T14:10:11.179Z,10.18
2017-11-06T14:11:21.859Z,10.19
2017-11-06T14:12:32.327Z,10.21
2017-11-06T14:13:42.811Z,10.21
2017-11-06T14:14:53.302Z,10.21
2017-11-06T14:16:03.786Z,10.11
2017-11-06T14:17:13.840Z,10.1
2017-11-06T14:18:23.988Z,10.1
2017-11-06T14:19:34.674Z,9.99
2017-11-06T14:20:45.178Z,9.99
2017-11-06T14:21:55.655Z,9.99
2017-11-06T14:23:06.138Z,10.13
2017-11-06T14:24:16.665Z,10.18
2017-11-06T14:25:27.119Z,10.17
2017-11-06T14:26:37.603Z,10.1
2017-11-06T14:27:48.160Z,10.1
2017-11-06T14:28:58.336Z,10.11
2017-11-06T14:30:09.100Z,10.15
2017-11-06T14:31:19.561Z,10.05
2017-11-06T14:32:30.059Z,9.88
2017-11-06T14:33:40.530Z,9.84
2017-11-06T14:34:50.686Z,9.8
2017-11-06T14:36:00.410Z,9.73
2017-11-06T14:37:10.892Z,9.75
2017-11-06T14:38:21.356Z,9.7
2017-11-06T14:39:31.999Z,9.73
2017-11-06T14:40:42.477Z,9.7
2017-11-06T14:41:53.051Z,9.63
2017-11-06T14:43:03.685Z,9.67
2017-11-06T14:44:14.174Z,9.63
2017-11-06T14:45:24.648Z,9.63
2017-11-06T14:46:34.779Z,9.53
2017-11-06T14:47:45.223Z,9.52
2017-11-06T14:48:55.745Z,9.42
2017-11-06T14:50:05.913Z,9.44
2017-11-06T14:51:16.425Z,9.35
2017-11-06T14:52:26.888Z,9.27
2017-11-06T14:53:37.358Z,9.22
2017-11-06T14:54:47.873Z,9.27
2017-11-06T14:55:58.331Z,9.12
2017-11-06T14:57:08.814Z,9.12
2017-11-06T14:58:19.473Z,9.12
2017-11-06T14:59:29.966Z,9.04
2017-11-06T15:00:40.467Z,8.98
2017-11-06T15:01:50.954Z,9
2017-11-06T15:03:01.420Z,8.95
2017-11-06T15:04:11.940Z,8.93
2017-11-06T15:05:22.419Z,8.92
2017-11-06T15:06:32.567Z,8.95
2017-11-06T15:07:43.178Z,9
2017-11-06T15:08:53.658Z,8.92
2017-11-06T15:10:04.121Z,8.92
2017-11-06T15:11:14.608Z,8.89
2017-11-06T15:12:24.842Z,8.86
2017-11-06T15:13:35.294Z,8.79
2017-11-06T15:14:45.779Z,8.82
2017-11-06T15:15:56.037Z,8.66
2017-11-06T15:17:06.532Z,8.7
2017-11-06T15:18:17.035Z,8.75
2017-11-06T15:19:27.286Z,8.58
2017-11-06T15:20:37.725Z,8.61
2017-11-06T15:21:48.322Z,8.53
2017-11-06T15:22:58.800Z,8.55
2017-11-06T15:24:09.354Z,8.6
2017-11-06T15:25:20.098Z,8.55
2017-11-06T15:26:30.563Z,8.55
2017-11-06T15:27:40.604Z,8.6
2017-11-06T15:28:51.103Z,8.55
2017-11-06T15:30:01.560Z,8.55
2017-11-06T15:31:11.448Z,8.52
2017-11-06T15:32:21.944Z,8.55
2017-11-06T15:33:32.478Z,8.5
2017-11-06T15:34:42.547Z,8.42
2017-11-06T15:35:52.994Z,8.34
2017-11-06T15:37:03.123Z,8.32
2017-11-06T15:38:13.621Z,8.39